Alabaster, Alabama
Current Conditions -  °F | °C
As of 8:53 AM on Sunday 21 Dec 2014 (Local Time) from KEET Reporting Station
Haze Haze  
Wind Chill: 43°   Ceiling: 500
Heat Index: 46°   Visibility: 4mi
Dew Point: 45°   Wind: 6mph
Humidity: 96%   Direction: 70°ENE
Pressure: 30.17"   Gusts: NA
Location:  33.25°N, 86.82°W
Report Text: KEET 211453Z AUTO 07005KT 4SM BR OVC005 08/07 A3017 RMK AO2 SLP217 T00780072 58001
Loading
Personal Weather Stations






























Interactive Weather Map New forecast layout! Learn more

10-Day Weather Forecast

Advertisements
Track Severe Weather on mobile